createdAt,value
2022-12-31T00:02:11.031Z,40.47
2022-12-31T00:05:14.742Z,43.13
2022-12-31T00:08:19.839Z,40.88
2022-12-31T00:11:23.671Z,48.08
2022-12-31T00:14:25.843Z,36.58
2022-12-31T00:17:28.303Z,45.45
2022-12-31T00:20:30.528Z,40.38
2022-12-31T00:23:33.128Z,41.05
2022-12-31T00:26:35.721Z,37.28
2022-12-31T00:29:38.179Z,41.65
2022-12-31T00:32:40.431Z,39.90
2022-12-31T00:35:42.800Z,45.80
2022-12-31T00:38:46.813Z,44.35
2022-12-31T00:41:49.243Z,40.80
2022-12-31T00:44:51.337Z,42.42
2022-12-31T00:47:53.750Z,49.25
2022-12-31T00:50:57.590Z,43.45
2022-12-31T00:54:00.156Z,49.92
2022-12-31T00:57:02.295Z,46.95
2022-12-31T01:00:07.612Z,41.58
2022-12-31T01:03:10.038Z,45.88
2022-12-31T01:06:12.730Z,43.00
2022-12-31T01:09:16.256Z,41.25
2022-12-31T01:12:18.765Z,45.40
2022-12-31T01:15:20.933Z,39.28
2022-12-31T01:18:23.357Z,45.78
2022-12-31T01:21:25.913Z,49.42
2022-12-31T01:24:28.372Z,40.70
2022-12-31T01:27:30.561Z,45.97
2022-12-31T01:30:33.205Z,45.03
2022-12-31T01:33:36.390Z,42.88
2022-12-31T01:36:39.227Z,41.08
2022-12-31T01:39:41.465Z,46.30
2022-12-31T01:42:43.851Z,40.72
2022-12-31T01:45:49.405Z,47.67
2022-12-31T01:48:56.067Z,46.50
2022-12-31T01:52:07.438Z,40.97
2022-12-31T01:55:21.463Z,43.78
2022-12-31T01:58:29.644Z,44.97
2022-12-31T02:01:33.046Z,46.92
2022-12-31T02:04:35.776Z,44.55
2022-12-31T02:07:39.268Z,45.20
2022-12-31T02:10:42.109Z,50.20
2022-12-31T02:13:44.333Z,40.50
2022-12-31T02:16:54.382Z,50.85
2022-12-31T02:20:14.772Z,55.38
2022-12-31T02:23:32.641Z,46.30
2022-12-31T02:26:55.903Z,49.83
2022-12-31T02:30:15.039Z,51.30
2022-12-31T02:33:24.548Z,53.43
2022-12-31T02:36:34.438Z,47.62
2022-12-31T02:39:37.427Z,53.55
2022-12-31T02:42:39.836Z,56.83
2022-12-31T02:45:47.563Z,42.75
2022-12-31T02:49:01.136Z,42.65
2022-12-31T02:52:14.047Z,40.80
2022-12-31T02:55:26.968Z,48.60
2022-12-31T02:58:54.970Z,47.72
2022-12-31T03:02:15.676Z,43.10
2022-12-31T03:05:21.429Z,48.25
2022-12-31T03:08:25.824Z,47.92
2022-12-31T03:11:46.402Z,46.60
2022-12-31T03:14:49.139Z,43.50
2022-12-31T03:18:05.766Z,42.80
2022-12-31T03:21:31.370Z,46.53
2022-12-31T03:24:52.136Z,42.88
2022-12-31T03:27:54.858Z,50.65
2022-12-31T03:31:00.068Z,42.83
2022-12-31T03:34:02.605Z,46.03
2022-12-31T03:37:04.809Z,49.78
2022-12-31T03:40:09.039Z,41.67
2022-12-31T03:43:11.808Z,46.30
2022-12-31T03:46:14.242Z,45.45
2022-12-31T03:49:16.477Z,42.47
2022-12-31T03:52:18.983Z,51.37
2022-12-31T03:55:21.195Z,36.90
2022-12-31T03:58:23.667Z,42.33
2022-12-31T04:01:26.148Z,49.03
2022-12-31T04:04:28.731Z,48.40
2022-12-31T04:07:30.968Z,41.47
2022-12-31T04:10:33.371Z,52.60
2022-12-31T04:13:35.536Z,55.80
2022-12-31T04:16:38.240Z,51.58
2022-12-31T04:19:41.157Z,58.33
2022-12-31T04:22:44.103Z,51.70
2022-12-31T04:25:46.598Z,51.05
2022-12-31T04:28:52.111Z,55.40
2022-12-31T04:31:54.491Z,50.40
2022-12-31T04:34:56.940Z,66.85
2022-12-31T04:37:59.109Z,54.78
2022-12-31T04:41:20.065Z,52.35
2022-12-31T04:44:22.414Z,58.65
2022-12-31T04:47:27.345Z,53.15
2022-12-31T04:50:29.502Z,54.13
2022-12-31T04:53:32.979Z,66.12
2022-12-31T04:56:36.755Z,67.70
2022-12-31T04:59:39.373Z,52.65
2022-12-31T05:02:41.681Z,57.53
2022-12-31T05:05:44.494Z,63.90
2022-12-31T05:08:46.754Z,50.08
2022-12-31T05:11:49.196Z,58.95
2022-12-31T05:14:51.422Z,53.70
2022-12-31T05:17:53.954Z,50.28
2022-12-31T05:20:56.114Z,57.67
2022-12-31T05:23:58.754Z,69.12
2022-12-31T05:27:00.918Z,71.82
2022-12-31T05:30:05.257Z,60.35
2022-12-31T05:33:07.547Z,60.15
2022-12-31T05:36:10.015Z,65.20
2022-12-31T05:39:12.351Z,59.72
2022-12-31T05:42:14.788Z,71.00
2022-12-31T05:45:18.410Z,66.75
2022-12-31T05:48:21.344Z,66.80
2022-12-31T05:51:23.509Z,62.95
2022-12-31T05:54:26.069Z,62.33
2022-12-31T05:57:28.234Z,71.82
2022-12-31T06:00:30.775Z,65.10
2022-12-31T06:03:33.251Z,63.38
2022-12-31T06:06:35.414Z,64.60
2022-12-31T06:09:37.982Z,58.87
2022-12-31T06:12:40.158Z,71.47
2022-12-31T06:15:42.582Z,65.53
2022-12-31T06:18:47.760Z,69.70
2022-12-31T06:21:50.237Z,73.75
2022-12-31T06:24:52.424Z,46.37
2022-12-31T06:27:54.912Z,52.90
2022-12-31T06:31:05.235Z,54.80
2022-12-31T06:34:07.795Z,62.22
2022-12-31T06:37:09.925Z,66.60
2022-12-31T06:40:13.234Z,52.92
2022-12-31T06:43:15.602Z,60.53
2022-12-31T06:46:18.569Z,51.40
2022-12-31T06:49:20.789Z,46.37
2022-12-31T06:52:23.250Z,60.17
2022-12-31T06:55:25.840Z,63.70
2022-12-31T06:58:28.555Z,61.70
2022-12-31T07:01:41.106Z,54.40
2022-12-31T07:04:43.561Z,62.15
2022-12-31T07:07:53.891Z,61.47
2022-12-31T07:11:17.310Z,62.50
2022-12-31T07:14:30.792Z,61.90
2022-12-31T07:18:02.011Z,55.53
2022-12-31T07:21:07.878Z,63.58
2022-12-31T07:24:11.678Z,60.42
2022-12-31T07:27:32.535Z,55.03
2022-12-31T07:30:56.680Z,56.75
2022-12-31T07:34:03.617Z,54.53
2022-12-31T07:37:46.771Z,49.40
2022-12-31T07:41:09.951Z,55.17
2022-12-31T07:44:32.120Z,56.22
2022-12-31T07:47:34.672Z,60.92
2022-12-31T07:50:37.404Z,56.20
2022-12-31T07:53:39.778Z,65.30
2022-12-31T07:56:43.907Z,71.90
2022-12-31T08:00:03.329Z,63.42
2022-12-31T08:03:21.189Z,67.47
2022-12-31T08:06:56.260Z,69.00
2022-12-31T08:10:15.668Z,79.78
2022-12-31T08:13:20.954Z,73.85
2022-12-31T08:16:23.499Z,64.40
2022-12-31T08:19:30.411Z,63.17
2022-12-31T08:23:04.972Z,66.25
2022-12-31T08:26:22.672Z,67.95
2022-12-31T08:29:36.569Z,73.10
2022-12-31T08:32:57.583Z,76.05
2022-12-31T08:36:19.792Z,66.43
2022-12-31T08:40:02.132Z,80.28
2022-12-31T08:43:19.357Z,69.55
2022-12-31T08:46:34.286Z,64.18
2022-12-31T08:49:36.708Z,77.50
2022-12-31T08:52:39.333Z,69.50
2022-12-31T08:55:47.119Z,71.47
2022-12-31T08:59:15.044Z,70.10
2022-12-31T09:02:37.081Z,69.00
2022-12-31T09:06:02.720Z,80.50
2022-12-31T09:09:24.237Z,70.12
2022-12-31T09:12:42.698Z,72.50
2022-12-31T09:16:09.529Z,70.45
2022-12-31T09:19:12.108Z,75.53
2022-12-31T09:22:14.477Z,71.55
2022-12-31T09:25:19.604Z,67.40
2022-12-31T09:28:33.044Z,70.00
2022-12-31T09:32:07.536Z,64.65
2022-12-31T09:35:35.754Z,70.35
2022-12-31T09:39:05.197Z,67.28
2022-12-31T09:42:32.235Z,65.03
2022-12-31T09:46:00.043Z,72.43
2022-12-31T09:49:30.348Z,71.80
2022-12-31T09:52:41.974Z,61.03
2022-12-31T09:55:52.218Z,62.83
2022-12-31T09:59:26.506Z,64.05
2022-12-31T10:03:06.440Z,67.65
2022-12-31T10:06:33.724Z,74.10
2022-12-31T10:09:50.172Z,79.82
2022-12-31T10:13:10.710Z,81.35
2022-12-31T10:16:15.804Z,82.00
2022-12-31T10:19:29.755Z,78.15
2022-12-31T10:22:37.979Z,83.25
2022-12-31T10:26:07.544Z,72.85
2022-12-31T10:30:07.318Z,76.97
2022-12-31T10:33:21.530Z,66.43
2022-12-31T10:36:54.427Z,63.92
2022-12-31T10:40:05.881Z,54.90
2022-12-31T10:43:33.993Z,57.03
2022-12-31T10:47:10.609Z,54.22
2022-12-31T10:50:34.667Z,60.45
2022-12-31T10:54:16.208Z,61.58
2022-12-31T10:57:39.932Z,64.32
2022-12-31T11:01:33.030Z,65.65
2022-12-31T11:05:06.106Z,65.20
2022-12-31T11:08:14.782Z,66.97
2022-12-31T11:11:31.175Z,64.05
2022-12-31T11:15:07.092Z,50.28
2022-12-31T11:18:27.298Z,62.95
2022-12-31T11:21:56.705Z,62.42
2022-12-31T11:25:18.052Z,59.47
2022-12-31T11:28:29.255Z,57.38
2022-12-31T11:31:37.295Z,63.80
2022-12-31T11:35:04.486Z,51.45
2022-12-31T11:38:09.465Z,60.78
2022-12-31T11:41:39.653Z,60.70
2022-12-31T11:45:12.702Z,58.72
2022-12-31T11:48:30.701Z,65.07
2022-12-31T11:51:59.962Z,56.97
2022-12-31T11:55:02.341Z,67.70
2022-12-31T11:58:28.557Z,75.93
2022-12-31T12:01:50.800Z,72.32
2022-12-31T12:04:57.398Z,71.75
2022-12-31T12:07:59.638Z,72.30
2022-12-31T12:11:25.374Z,69.32
2022-12-31T12:14:39.719Z,63.72
2022-12-31T12:17:42.737Z,74.62
2022-12-31T12:20:46.457Z,64.55
2022-12-31T12:24:25.358Z,70.90
2022-12-31T12:27:29.802Z,69.43
2022-12-31T12:30:41.201Z,64.72
2022-12-31T12:33:47.004Z,64.10
2022-12-31T12:36:49.887Z,66.40
2022-12-31T12:40:01.727Z,65.97
2022-12-31T12:43:04.333Z,66.65
2022-12-31T12:46:47.969Z,64.30
2022-12-31T12:49:54.616Z,72.60
2022-12-31T12:53:09.263Z,70.72
2022-12-31T12:56:38.832Z,74.57
2022-12-31T12:59:49.709Z,64.93
2022-12-31T13:03:09.035Z,61.55
2022-12-31T13:06:43.535Z,60.35
2022-12-31T13:10:21.423Z,64.45
2022-12-31T13:13:52.673Z,65.07
2022-12-31T13:17:32.849Z,61.13
2022-12-31T13:20:44.070Z,69.97
2022-12-31T13:24:11.527Z,71.22
2022-12-31T13:27:27.588Z,60.90
2022-12-31T13:30:43.662Z,62.85
2022-12-31T13:33:52.478Z,62.35
2022-12-31T13:36:58.564Z,59.25
2022-12-31T13:40:24.146Z,65.65
2022-12-31T13:43:50.791Z,58.30
2022-12-31T13:47:31.935Z,62.33
2022-12-31T13:50:47.764Z,57.03
2022-12-31T13:54:51.539Z,56.00
2022-12-31T13:58:05.620Z,56.13
2022-12-31T14:01:18.349Z,58.00
2022-12-31T14:04:31.564Z,55.95
2022-12-31T14:07:45.787Z,55.00
2022-12-31T14:11:05.120Z,57.85
2022-12-31T14:14:20.966Z,57.10
2022-12-31T14:17:32.417Z,64.03
2022-12-31T14:20:48.428Z,57.62
2022-12-31T14:24:09.631Z,57.92
2022-12-31T14:27:22.114Z,58.78
2022-12-31T14:30:30.972Z,63.10
2022-12-31T14:34:01.825Z,51.97
2022-12-31T14:37:09.963Z,52.17
2022-12-31T14:40:19.848Z,54.38
2022-12-31T14:43:41.050Z,56.97
2022-12-31T14:47:24.028Z,53.55
2022-12-31T14:50:29.649Z,54.80
2022-12-31T14:53:31.870Z,59.03
2022-12-31T14:56:42.729Z,57.17
2022-12-31T14:59:56.985Z,57.08
2022-12-31T15:03:06.597Z,58.10
2022-12-31T15:06:23.882Z,59.72
2022-12-31T15:09:50.842Z,61.22
2022-12-31T15:13:13.883Z,56.53
2022-12-31T15:16:38.171Z,50.83
2022-12-31T15:19:43.147Z,55.50
2022-12-31T15:22:50.683Z,51.10
2022-12-31T15:25:59.571Z,55.67
2022-12-31T15:29:05.450Z,58.50
2022-12-31T15:32:17.566Z,58.58
2022-12-31T15:35:23.198Z,61.53
2022-12-31T15:38:39.469Z,57.08
2022-12-31T15:42:18.878Z,59.10
2022-12-31T15:45:17.205Z,53.87
2022-12-31T15:48:30.916Z,58.15
2022-12-31T15:51:42.590Z,60.92
2022-12-31T15:54:49.286Z,58.67
2022-12-31T15:57:55.399Z,52.40
2022-12-31T16:01:03.338Z,55.00
2022-12-31T16:04:14.201Z,60.33
2022-12-31T16:07:18.188Z,61.28
2022-12-31T16:10:27.052Z,58.53
2022-12-31T16:13:30.497Z,57.10
2022-12-31T16:16:33.720Z,53.58
2022-12-31T16:19:44.767Z,54.00
2022-12-31T16:22:53.004Z,54.97
2022-12-31T16:26:00.442Z,61.67
2022-12-31T16:29:04.480Z,61.58
2022-12-31T16:32:14.125Z,69.97
2022-12-31T16:35:36.945Z,58.58
2022-12-31T16:38:40.672Z,60.75
2022-12-31T16:41:43.867Z,56.30
2022-12-31T16:44:47.819Z,49.80
2022-12-31T16:47:52.089Z,50.63
2022-12-31T16:50:56.350Z,60.40
2022-12-31T16:54:01.282Z,51.60
2022-12-31T16:57:06.231Z,58.20
2022-12-31T17:00:16.627Z,128.98
2022-12-31T17:03:23.291Z,117.55
2022-12-31T17:06:28.097Z,87.97
2022-12-31T17:09:36.550Z,70.87
2022-12-31T17:13:25.536Z,65.40
2022-12-31T17:16:10.138Z,70.95
2022-12-31T17:19:34.875Z,74.10
2022-12-31T17:22:42.835Z,69.62
2022-12-31T17:25:45.482Z,72.95
2022-12-31T17:28:50.828Z,70.43
2022-12-31T17:32:02.630Z,73.93
2022-12-31T17:35:42.243Z,67.93
2022-12-31T17:38:44.856Z,65.37
2022-12-31T17:41:49.519Z,64.97
2022-12-31T17:44:55.867Z,74.20
2022-12-31T17:47:59.770Z,68.87
2022-12-31T17:51:02.567Z,67.97
2022-12-31T17:54:24.954Z,65.82
2022-12-31T17:57:28.203Z,68.03
2022-12-31T18:00:33.140Z,67.32
2022-12-31T18:03:36.152Z,67.55
2022-12-31T18:06:38.299Z,62.25
2022-12-31T18:09:40.741Z,64.22
2022-12-31T18:12:44.241Z,64.90
2022-12-31T18:15:46.754Z,66.85
2022-12-31T18:18:49.521Z,67.53
2022-12-31T18:21:52.124Z,66.05
2022-12-31T18:24:54.476Z,70.25
2022-12-31T18:27:56.955Z,70.68
2022-12-31T18:30:59.368Z,72.50
2022-12-31T18:34:01.928Z,73.35
2022-12-31T18:37:15.187Z,67.28
2022-12-31T18:40:22.112Z,69.35
2022-12-31T18:43:24.474Z,69.45
2022-12-31T18:46:27.640Z,65.57
2022-12-31T18:49:29.877Z,64.07
2022-12-31T18:52:32.351Z,64.43
2022-12-31T18:55:46.975Z,64.45
2022-12-31T18:58:49.467Z,63.13
2022-12-31T19:01:51.690Z,65.62
2022-12-31T19:04:54.152Z,60.83
2022-12-31T19:07:56.976Z,61.85
2022-12-31T19:10:59.443Z,65.62
2022-12-31T19:14:21.553Z,63.25
2022-12-31T19:17:24.009Z,67.93
2022-12-31T19:20:26.559Z,81.12
2022-12-31T19:23:29.033Z,70.32
2022-12-31T19:26:31.178Z,71.72
2022-12-31T19:29:33.684Z,74.45
2022-12-31T19:32:35.845Z,76.50
2022-12-31T19:35:39.718Z,83.40
2022-12-31T19:38:42.217Z,135.05
2022-12-31T19:41:45.530Z,125.72
2022-12-31T19:44:47.755Z,90.68
2022-12-31T19:47:51.149Z,106.47
2022-12-31T19:50:54.811Z,85.32
2022-12-31T19:53:57.223Z,98.00
2022-12-31T19:56:59.474Z,86.90
2022-12-31T20:00:01.925Z,88.43
2022-12-31T20:03:15.280Z,92.22
2022-12-31T20:06:18.813Z,86.95
2022-12-31T20:09:20.998Z,80.78
2022-12-31T20:12:23.426Z,81.97
2022-12-31T20:15:25.614Z,86.53
2022-12-31T20:18:28.059Z,83.72
2022-12-31T20:21:30.321Z,86.93
2022-12-31T20:24:32.847Z,86.40
2022-12-31T20:27:35.218Z,93.90
2022-12-31T20:30:38.815Z,93.15
2022-12-31T20:33:41.159Z,99.28
2022-12-31T20:36:43.688Z,96.68
2022-12-31T20:39:45.835Z,84.68
2022-12-31T20:42:48.291Z,91.78
2022-12-31T20:45:50.499Z,82.05
2022-12-31T20:48:55.436Z,91.32
2022-12-31T20:51:57.729Z,84.40
2022-12-31T20:55:00.251Z,79.87
2022-12-31T20:58:04.112Z,87.40
2022-12-31T21:01:08.922Z,80.80
2022-12-31T21:04:11.303Z,85.40
2022-12-31T21:07:13.863Z,90.65
2022-12-31T21:10:17.004Z,88.65
2022-12-31T21:13:22.909Z,86.00
2022-12-31T21:16:26.112Z,86.68
2022-12-31T21:19:28.565Z,86.15
2022-12-31T21:22:33.600Z,87.20
2022-12-31T21:25:36.062Z,86.28
2022-12-31T21:28:38.627Z,90.25
2022-12-31T21:31:41.050Z,91.22
2022-12-31T21:34:43.176Z,89.03
2022-12-31T21:37:58.903Z,87.25
2022-12-31T21:41:04.550Z,87.93
2022-12-31T21:44:07.032Z,83.30
2022-12-31T21:47:38.605Z,85.65
2022-12-31T21:50:45.995Z,90.53
2022-12-31T21:53:48.163Z,93.07
2022-12-31T21:56:50.656Z,103.30
2022-12-31T22:00:40.384Z,95.40
2022-12-31T22:03:34.386Z,95.03
2022-12-31T22:06:36.745Z,86.97
2022-12-31T22:09:39.195Z,87.90
2022-12-31T22:12:41.388Z,85.95
2022-12-31T22:15:45.116Z,76.93
2022-12-31T22:18:47.914Z,92.97
2022-12-31T22:21:50.481Z,90.68
2022-12-31T22:24:52.682Z,83.30
2022-12-31T22:31:24.483Z,100.38
2022-12-31T22:34:27.322Z,102.55
2022-12-31T22:37:56.403Z,106.12
2022-12-31T22:40:52.090Z,101.20
2022-12-31T22:44:03.218Z,99.25
2022-12-31T22:47:06.830Z,93.28
2022-12-31T22:50:09.161Z,91.72
2022-12-31T22:53:11.716Z,96.10
2022-12-31T22:56:18.387Z,239.20
2022-12-31T22:59:20.991Z,165.77
2022-12-31T23:02:23.190Z,160.35
2022-12-31T23:05:25.667Z,113.28
2022-12-31T23:08:27.899Z,118.13
2022-12-31T23:11:31.224Z,95.87
2022-12-31T23:14:52.692Z,95.07
2022-12-31T23:18:13.520Z,93.82
2022-12-31T23:21:34.927Z,103.72
2022-12-31T23:24:37.823Z,103.50
2022-12-31T23:27:39.994Z,105.97
2022-12-31T23:30:43.321Z,127.95
2022-12-31T23:33:45.443Z,157.90
2022-12-31T23:36:48.030Z,148.10
2022-12-31T23:39:50.301Z,115.43
2022-12-31T23:42:52.751Z,115.80
2022-12-31T23:45:55.019Z,113.35
2022-12-31T23:48:57.472Z,93.70
2022-12-31T23:51:59.631Z,101.03
2022-12-31T23:55:03.555Z,101.22
2022-12-31T23:58:05.767Z,92.30
